Latest Weather Observations for Palmerville

IDQ60801

Issued at 7:32 am EST Thursday 27 April 2017 (issued every 30 minutes, with the page automatically refreshed every 10 minutes)

About weather observations | Map of weather stations | Latest weather observations for QLD | Other Formats
Station Details ID: 028004 Name: PALMERVILLE Lat: -16.00 Lon: 144.08 Height: 203.8 m
Data from the previous 72 hours. | See also: Recent months at Palmerville
Date/Time
EST
Temp
°C
App
Temp
°C
Dew
Point
°C
Rel
Hum
%
Delta-T
°C
Wind Press
QNH
hPa
Press
MSL
hPa
Rain since
9am
mm
Dir  Spd
km/h
Gust
km/h
Spd
kts
Gust
kts
27/07:30am 21.0 22.6 20.0 94 0.6 E 11 13 6 7 1013.2 1011.9 0.0
27/07:00am 20.3 23.0 20.3 100 0.0 E 6 9 3 5 1013.1 1011.8 0.0
27/06:30am 20.0 23.3 20.0 100 0.0 ESE 2 6 1 3 1012.7 1011.5 0.0
27/06:00am 19.4 21.6 19.2 99 0.1 SSE 6 7 3 4 1012.6 1011.4 0.0
27/05:30am 19.4 21.5 18.9 97 0.3 SSE 6 9 3 5 1012.5 1011.3 0.0
27/05:00am 20.0 22.6 20.0 100 0.0 ENE 6 7 3 4 1012.3 1011.1 0.0
27/04:30am 19.3 22.3 18.5 95 0.5 CALM 0 0 0 0 1012.4 1011.2 0.0
27/04:00am 19.5 22.4 18.3 93 0.8 CALM 0 0 0 0 1012.2 1011.0 0.0
27/03:30am 20.0 23.3 19.2 95 0.5 CALM 0 6 0 3 1012.2 1011.0 0.0
27/03:00am 19.4 21.6 18.4 94 0.6 SSE 4 7 2 4 1012.2 1011.0 0.0
27/02:30am 20.2 23.3 19.5 96 0.4 ESE 2 7 1 4 1012.6 1011.4 0.0
27/02:00am 19.8 23.1 19.1 96 0.4 CALM 0 0 0 0 1012.8 1011.6 0.0
27/01:30am 20.1 23.5 19.4 96 0.4 CALM 0 0 0 0 1013.3 1012.0 0.0
27/01:00am 19.8 21.6 18.3 91 0.9 ESE 6 7 3 4 1013.5 1012.2 0.0
27/12:30am 19.9 22.8 18.2 90 1.1 CALM 0 0 0 0 1013.8 1012.5 0.0
27/12:00am 20.3 23.2 18.2 88 1.3 CALM 0 0 0 0 1014.0 1012.7 0.0
 
Date/Time
EST
Temp
°C
App
Temp
°C
Dew
Point
°C
Rel
Hum
%
Delta-T
°C
Wind Press
QNH
hPa
Press
MSL
hPa
Rain since
9am
mm
Dir  Spd
km/h
Gust
km/h
Spd
kts
Gust
kts
26/11:30pm 20.4 23.2 18.0 86 1.5 CALM 0 0 0 0 1013.9 1012.6 0.0
26/11:00pm 21.2 24.1 18.2 83 1.9 CALM 0 0 0 0 1014.0 1012.7 0.0
26/10:30pm 22.0 24.4 18.8 82 2.0 ENE 4 7 2 4 1013.9 1012.6 0.0
26/10:00pm 22.1 24.7 18.5 80 2.3 ENE 2 7 1 4 1013.8 1012.5 0.0
26/09:30pm 22.4 25.4 18.4 78 2.5 CALM 0 0 0 0 1013.7 1012.4 0.0
26/09:00pm 22.6 24.7 17.3 72 3.3 ENE 2 7 1 4 1013.7 1012.4 0.0
26/08:30pm 22.9 25.0 17.1 70 3.6 ENE 2 6 1 3 1013.5 1012.2 0.0
26/08:00pm 24.0 25.4 17.3 66 4.2 SSW 6 11 3 6 1013.3 1012.0 0.0
26/07:30pm 24.2 26.5 17.7 67 4.1 ESE 2 9 1 5 1012.8 1011.6 0.0
26/07:00pm 24.8 26.8 16.0 58 5.4 CALM 0 0 0 0 1012.3 1011.1 0.0
26/06:30pm 26.4 27.2 15.8 52 6.5 S 6 7 3 4 1011.8 1010.6 0.0
26/06:00pm 28.6 29.0 15.2 44 8.3 SE 7 9 4 5 1011.3 1010.1 0.0
26/05:30pm 30.4 29.8 14.5 38 9.7 SSE 11 15 6 8 1010.9 1009.7 0.0
26/05:00pm 31.6 30.5 14.3 35 10.6 SSE 13 17 7 9 1010.5 1009.3 0.0
26/04:30pm 31.9 30.9 14.5 34 10.7 SE 13 17 7 9 1010.3 1009.1 0.0
26/04:00pm 33.4 32.4 14.5 32 11.7 SE 13 19 7 10 1010.3 1009.1 0.0
26/03:30pm 33.2 32.5 14.3 32 11.7 SE 11 19 6 10 1010.4 1009.2 0.0
26/03:00pm 33.2 31.9 13.8 31 11.9 SE 13 24 7 13 1010.6 1009.4 0.0
26/02:30pm 32.6 33.6 16.4 37 10.3 ESE 6 13 3 7 1010.9 1009.7 0.0
26/02:00pm 32.3 33.4 17.0 40 9.8 SSW 7 15 4 8 1011.3 1010.1 0.0
26/01:30pm 31.9 33.0 16.6 39 9.7 SE 6 13 3 7 1011.9 1010.7 0.0
26/01:00pm 31.4 32.0 16.9 41 9.2 SE 9 17 5 9 1012.4 1011.2 0.0
26/12:30pm 32.1 33.4 17.6 42 9.4 ESE 7 13 4 7 1012.8 1011.6 0.0
26/12:00pm 30.9 32.5 17.9 45 8.4 NE 6 11 3 6 1013.5 1012.2 0.0
26/11:30am 30.2 31.7 18.0 48 7.9 N 7 17 4 9 1014.1 1012.8 0.0
26/11:00am 29.6 31.0 18.7 52 7.1 E 9 15 5 8 1014.5 1013.2 0.0
26/10:30am 28.5 30.0 18.9 56 6.2 ENE 9 13 5 7 1014.8 1013.6 0.0
26/10:00am 27.9 29.9 19.1 58 5.7 E 7 13 4 7 1015.0 1013.8 0.0
26/09:30am 26.9 28.8 19.8 65 4.7 E 9 15 5 8 1015.2 1014.0 0.0
26/09:00am 26.1 27.6 18.8 64 4.7 ENE 9 15 5 8 1015.1 1013.9 0.0
26/08:30am 24.4 26.5 19.0 72 3.5 ENE 6 9 3 5 1014.8 1013.6 0.0
26/08:00am 22.9 25.0 19.3 80 2.3 ENE 7 11 4 6 1014.5 1013.2 0.0
26/07:30am 21.8 24.2 19.7 88 1.4 ENE 6 9 3 5 1014.3 1013.0 0.0
26/07:00am 20.7 23.0 19.9 95 0.5 E 7 9 4 5 1014.1 1012.8 0.0
26/06:30am 19.7 22.2 19.0 96 0.4 E 4 9 2 5 1013.7 1012.4 0.0
26/06:00am 19.9 23.2 19.1 95 0.5 CALM 0 0 0 0 1013.3 1012.0 0.0
26/05:30am 20.1 23.5 19.4 96 0.4 CALM 0 0 0 0 1013.1 1011.8 0.0
26/05:00am 20.1 23.2 18.6 91 0.9 CALM 0 0 0 0 1012.7 1011.5 0.0
26/04:30am 20.7 23.0 19.5 93 0.8 E 6 7 3 4 1012.6 1011.4 0.0
26/04:00am 20.4 23.7 19.1 92 0.8 CALM 0 6 0 3 1012.8 1011.6 0.0
26/03:30am 20.7 23.8 18.6 88 1.3 CALM 0 6 0 3 1012.9 1011.7 0.0
26/03:00am 21.0 23.2 19.3 90 1.1 NNE 6 7 3 4 1012.8 1011.6 0.0
26/02:30am 21.4 23.8 18.8 85 1.6 N 4 7 2 4 1012.9 1011.7 0.0
26/02:00am 22.0 25.3 19.2 84 1.8 CALM 0 0 0 0 1013.3 1012.0 0.0
26/01:30am 22.3 25.6 19.1 82 2.0 CALM 0 0 0 0 1013.5 1012.2 0.0
26/01:00am 22.9 25.1 19.3 80 2.3 NE 6 9 3 5 1013.9 1012.6 0.0
26/12:30am 23.2 25.4 19.2 78 2.6 ESE 6 9 3 5 1013.9 1012.6 0.0
26/12:00am 23.1 26.1 19.3 79 2.4 NE 2 6 1 3 1014.0 1012.7 0.0
 
Date/Time
EST
Temp
°C
App
Temp
°C
Dew
Point
°C
Rel
Hum
%
Delta-T
°C
Wind Press
QNH
hPa
Press
MSL
hPa
Rain since
9am
mm
Dir  Spd
km/h
Gust
km/h
Spd
kts
Gust
kts
25/11:30pm 23.3 26.3 19.2 78 2.6 ESE 2 9 1 5 1014.3 1013.0 0.0
25/11:00pm 23.7 26.0 19.4 77 2.8 ENE 6 11 3 6 1014.4 1013.1 0.0
25/10:30pm 24.2 26.6 19.7 76 2.9 NE 6 11 3 6 1014.5 1013.2 0.0
25/10:00pm 24.3 26.8 19.1 73 3.3 E 4 7 2 4 1014.6 1013.4 0.0
25/09:30pm 24.9 26.6 19.3 71 3.6 ENE 9 13 5 7 1014.5 1013.2 0.0
25/09:00pm 25.4 27.2 19.5 70 3.8 NE 9 15 5 8 1014.5 1013.2 0.0
25/08:30pm 25.8 27.8 19.9 70 3.9 NE 9 15 5 8 1014.1 1012.8 0.0
25/08:00pm 26.1 28.1 20.0 69 4.0 NE 9 15 5 8 1013.7 1012.4 0.0
25/07:30pm 26.6 28.2 20.0 67 4.3 NE 11 19 6 10 1013.2 1011.9 0.0
25/07:00pm 27.0 28.6 19.9 65 4.7 NE 11 17 6 9 1012.6 1011.4 0.0
25/06:30pm 27.5 29.4 19.8 63 5.1 NNE 9 13 5 7 1012.3 1011.1 0.0
25/06:00pm 28.1 29.5 19.6 60 5.6 NE 11 15 6 8 1012.1 1010.9 0.0
25/05:30pm 29.3 31.5 19.6 56 6.4 ENE 7 11 4 6 1011.6 1010.4 0.0
25/05:00pm 29.8 31.1 19.2 53 6.9 NNE 11 15 6 8 1011.4 1010.2 0.0
25/04:30pm 30.5 32.3 19.5 51 7.2 NNE 9 17 5 9 1011.0 1009.8 0.0
25/04:00pm 30.7 32.4 19.4 51 7.4 E 9 15 5 8 1011.0 1009.8 0.0
25/03:30pm 31.6 33.7 20.2 50 7.6 NE 9 17 5 9 1011.1 1009.9 0.0
25/03:00pm 31.1 33.4 19.8 51 7.5 E 7 11 4 6 1011.2 1010.0 0.0
25/02:30pm 31.4 33.0 19.1 48 8.1 ENE 9 15 5 8 1011.4 1010.2 0.0
25/02:00pm 32.9 34.6 19.4 45 8.9 E 9 15 5 8 1011.7 1010.5 0.0
25/01:30pm 32.8 34.8 20.0 47 8.5 E 9 15 5 8 1012.0 1010.8 0.0
25/01:00pm 31.8 33.5 19.4 47 8.2 E 9 15 5 8 1012.4 1011.2 0.0
25/12:30pm 31.8 33.5 19.4 47 8.2 E 9 17 5 9 1012.9 1011.7 0.0
25/12:00pm 30.6 31.6 18.7 49 7.8 ENE 11 20 6 11 1013.5 1012.2 0.0
25/11:30am 30.9 32.0 19.6 51 7.5 ENE 13 20 7 11 1014.2 1012.9 0.0
25/11:00am 29.9 31.9 19.9 55 6.6 E 9 19 5 10 1014.7 1013.5 0.0
25/10:30am 29.1 30.3 20.0 58 6.0 ESE 13 17 7 9 1015.0 1013.8 0.0
25/10:00am 27.5 29.2 19.3 61 5.3 ENE 9 13 5 7 1015.2 1014.0 0.0
25/09:30am 26.0 27.0 18.7 64 4.7 ENE 11 15 6 8 1015.3 1014.1 0.0
25/09:00am 25.1 26.6 18.8 68 4.0 E 9 17 5 9 1015.0 1013.8 0.0
25/08:30am 23.5 25.0 18.8 75 3.0 E 9 15 5 8 1014.8 1013.6 0.0
25/08:00am 21.4 23.1 18.4 83 1.9 E 7 13 4 7 1014.7 1013.5 0.0
25/07:30am 19.2 20.9 18.0 93 0.7 ESE 6 9 3 5 1014.5 1013.2 0.0
25/07:00am 18.5 20.3 18.2 98 0.2 E 6 7 3 4 1014.4 1013.1 0.0
25/06:30am 18.3 20.9 18.3 100 0.0 E 2 7 1 4 1014.1 1012.8 0.0
25/06:00am 17.7 19.1 17.4 98 0.2 ESE 6 7 3 4 1013.7 1012.4 0.0
25/05:30am 17.7 19.0 17.1 96 0.4 SSE 6 7 3 4 1013.4 1012.1 0.0
25/05:00am 17.8 20.1 16.8 94 0.6 CALM 0 0 0 0 1012.9 1011.7 0.0
25/04:30am 18.1 20.5 17.0 93 0.7 CALM 0 0 0 0 1012.8 1011.6 0.0
25/04:00am 18.7 21.5 18.0 96 0.4 CALM 0 0 0 0 1013.1 1011.8 0.0
25/03:30am 18.7 20.2 17.5 93 0.7 E 6 7 3 4 1012.9 1011.7 0.0
25/03:00am 18.6 21.0 17.1 91 0.9 CALM 0 0 0 0 1012.8 1011.6 0.0
25/02:30am 18.8 21.0 16.6 87 1.3 CALM 0 0 0 0 1012.9 1011.7 0.0
25/02:00am 19.6 22.0 17.0 85 1.6 CALM 0 0 0 0 1012.9 1011.7 0.0
25/01:30am 20.1 21.4 17.5 85 1.6 NE 7 9 4 5 1013.2 1011.9 0.0
25/01:00am 20.7 23.2 17.3 81 2.1 CALM 0 0 0 0 1013.4 1012.1 0.0
25/12:30am 21.2 23.8 17.6 80 2.2 CALM 0 6 0 3 1013.9 1012.6 0.0
25/12:00am 21.0 23.4 17.0 78 2.5 CALM 0 2 0 1 1014.0 1012.7 0.0
 
Date/Time
EST
Temp
°C
App
Temp
°C
Dew
Point
°C
Rel
Hum
%
Delta-T
°C
Wind Press
QNH
hPa
Press
MSL
hPa
Rain since
9am
mm
Dir  Spd
km/h
Gust
km/h
Spd
kts
Gust
kts
24/11:30pm 21.6 24.0 17.0 75 2.8 CALM 0 0 0 0 1014.2 1012.9 0.0
24/11:00pm 22.3 23.9 17.0 72 3.3 WNW 4 7 2 4 1014.3 1013.0 0.0
24/10:30pm 22.9 25.3 16.9 69 3.7 CALM 0 6 0 3 1014.5 1013.2 0.0
24/10:00pm 23.3 25.2 16.6 66 4.1 ESE 2 7 1 4 1014.7 1013.5 0.0
24/09:30pm 23.5 25.4 16.8 66 4.1 SW 2 6 1 3 1014.7 1013.5 0.0
24/09:00pm 24.2 25.6 16.5 62 4.8 E 4 11 2 6 1014.4 1013.1 0.0
24/08:30pm 25.0 25.4 16.4 59 5.3 ENE 9 13 5 7 1014.2 1012.9 0.0
24/08:00pm 25.5 26.3 16.4 57 5.6 ENE 7 15 4 8 1013.9 1012.6 0.0
24/07:30pm 26.1 27.2 18.0 61 5.2 ENE 9 13 5 7 1013.5 1012.2 0.0
24/07:00pm 26.6 28.3 18.5 61 5.2 NE 7 17 4 9 1013.3 1012.0 0.0
24/06:30pm 27.2 28.5 18.5 59 5.6 NE 9 15 5 8 1012.9 1011.7 0.0
24/06:00pm 28.4 29.9 18.8 56 6.2 ENE 9 15 5 8 1012.7 1011.5 0.0
24/05:30pm 29.5 31.4 18.9 53 6.9 NE 7 11 4 6 1012.3 1011.1 0.0
24/05:00pm 29.8 30.4 18.6 51 7.3 ENE 13 20 7 11 1012.0 1010.8 0.0
24/04:30pm 31.5 32.6 18.8 46 8.3 ENE 11 22 6 12 1011.8 1010.6 0.0
24/04:00pm 32.0 33.0 18.6 45 8.8 ENE 11 19 6 10 1011.7 1010.5 0.0
24/03:30pm 32.2 33.3 18.8 45 8.8 E 11 19 6 10 1011.7 1010.5 0.0
24/03:00pm 31.9 32.8 18.5 45 8.7 ENE 11 17 6 9 1011.8 1010.6 0.0
24/02:30pm 30.5 31.7 18.2 47 8.0 ENE 9 17 5 9 1012.0 1010.8 0.0
24/02:00pm 32.2 32.3 19.1 45 8.6 NNE 17 26 9 14 1012.2 1011.0 0.0
24/01:30pm 32.0 32.7 18.9 45 8.6 ENE 13 20 7 11 1012.6 1011.4 0.0
24/01:00pm 31.9 32.9 19.5 47 8.2 E 13 20 7 11 1013.1 1011.8 0.0
24/12:30pm 31.4 31.7 18.7 46 8.3 E 15 22 8 12 1013.5 1012.2 0.0
24/12:00pm 31.5 32.2 18.8 46 8.3 ENE 13 20 7 11 1013.9 1012.6 0.0
24/11:30am 31.1 32.2 18.8 48 8.0 E 11 22 6 12 1014.3 1013.0 0.0
24/11:00am 30.7 31.5 19.1 50 7.6 E 13 26 7 14 1014.7 1013.5 0.0
24/10:30am 28.5 29.9 17.7 52 6.9 NE 7 13 4 7 1015.0 1013.8 0.0
24/10:00am 27.4 28.4 17.8 55 6.1 NE 9 15 5 8 1015.1 1013.9 0.0
24/09:30am 26.1 27.1 17.7 60 5.3 NE 9 15 5 8 1015.0 1013.8 0.0
24/09:00am 25.5 26.9 18.7 66 4.4 E 9 13 5 7 1014.8 1013.6 0.0
24/08:30am 23.4 25.1 18.1 72 3.3 ENE 6 9 3 5 1014.6 1013.4 0.0
24/08:00am 21.7 23.2 18.1 80 2.3 E 7 11 4 6 1014.6 1013.4 0.0

Other Formats:

Comma delimited format used in spreadsheet applications
http://www.bom.gov.au/fwo/IDQ60801/IDQ60801.94276.axf

JavaScript Object Notation format (JSON) in row-major order
http://www.bom.gov.au/fwo/IDQ60801/IDQ60801.94276.json